Time;durP1;ratioP1;P1;durP2;ratioP2;P2;SDS_P1;SDS_P2;PMS_P1;PMS_P2;Temp;Humidity;BMP_temperature;BMP_pressure;BME280_temperature;BME280_humidity;BME280_pressure;Samples;Min_cycle;Max_cycle;Signal;HPM_P1;HPM_P2
2022/08/14 00:00:23;;;;;;;747.15;687.08;;;;;;;20.77;45.35;96354.78;5035082;28;20195;-64
2022/08/14 00:02:48;;;;;;;786.47;722.50;;;;;;;20.68;45.41;96354.69;5034624;28;20236;-65
2022/08/14 00:05:19;;;;;;;797.70;731.33;;;;;;;20.60;45.94;96358.09;5034729;28;20731;-65
2022/08/14 00:07:45;;;;;;;796.28;729.70;;;;;;;20.47;46.07;96348.25;5034925;28;20273;-65
2022/08/14 00:10:13;;;;;;;784.10;717.25;;;;;;;20.37;46.34;96345.81;5034421;28;20270;-65
2022/08/14 00:12:44;;;;;;;813.45;744.22;;;;;;;20.42;46.17;96334.28;5034511;28;20198;-66
2022/08/14 00:15:21;;;;;;;807.10;739.22;;;;;;;20.31;46.46;96328.34;5034358;28;20171;-65
2022/08/14 00:17:46;;;;;;;812.72;744.78;;;;;;;20.32;46.25;96321.97;5033886;28;20627;-65
2022/08/14 00:20:12;;;;;;;823.60;756.20;;;;;;;20.27;46.52;96322.84;5034103;28;20229;-65
2022/08/14 00:22:37;;;;;;;825.55;757.97;;;;;;;20.30;46.47;96327.56;5034525;28;20273;-65
2022/08/14 00:25:07;;;;;;;804.17;738.58;;;;;;;20.31;46.41;96329.16;5033517;28;20186;-65
2022/08/14 00:27:33;;;;;;;790.08;724.92;;;;;;;20.25;46.63;96319.69;5034761;28;20222;-65
2022/08/14 00:29:58;;;;;;;787.13;721.72;;;;;;;20.22;46.53;96314.19;5034032;28;20544;-66
2022/08/14 00:32:24;;;;;;;794.17;728.65;;;;;;;20.24;46.68;96314.66;5033238;28;20605;-65
2022/08/14 00:34:49;;;;;;;777.45;713.58;;;;;;;20.15;46.71;96306.59;5034014;28;20182;-65
2022/08/14 00:37:14;;;;;;;776.40;712.63;;;;;;;20.09;46.85;96297.16;5034192;28;20266;-65
2022/08/14 00:39:40;;;;;;;802.25;736.17;;;;;;;20.20;46.64;96292.41;5034254;28;20241;-65
2022/08/14 00:42:05;;;;;;;814.67;749.80;;;;;;;20.15;46.58;96292.50;5033869;28;20186;-65
2022/08/14 00:44:31;;;;;;;796.30;730.75;;;;;;;20.23;46.42;96294.44;5032758;28;20191;-66
2022/08/14 00:46:57;;;;;;;797.58;732.13;;;;;;;20.22;46.39;96300.88;5033882;28;20197;-64
2022/08/14 00:49:22;;;;;;;812.85;747.30;;;;;;;20.14;46.72;96293.59;5033830;28;20178;-65
2022/08/14 00:51:48;;;;;;;813.88;747.35;;;;;;;20.21;46.55;96291.31;5034078;28;20742;-65
2022/08/14 00:54:15;;;;;;;822.78;756.97;;;;;;;20.04;47.05;96291.16;5033614;28;20298;-67
2022/08/14 00:56:40;;;;;;;817.20;750.90;;;;;;;20.01;47.00;96291.72;5033974;28;20258;-65
2022/08/14 00:59:06;;;;;;;832.78;767.38;;;;;;;19.87;47.43;96283.78;5032379;28;20186;-65
2022/08/14 01:01:34;;;;;;;838.72;773.85;;;;;;;19.93;47.58;96295.91;5033678;28;20198;-65
2022/08/14 01:04:02;;;;;;;818.63;754.97;;;;;;;19.77;47.76;96290.09;5033220;28;20198;-65
2022/08/14 01:06:28;;;;;;;802.08;740.30;;;;;;;19.99;47.52;96292.06;5033535;28;20266;-64
2022/08/14 01:08:54;;;;;;;762.42;703.22;;;;;;;20.01;47.53;96289.84;5033601;28;20213;-65
2022/08/14 01:11:21;;;;;;;693.25;638.83;;;;;;;19.84;48.30;96282.50;5033717;28;20540;-64
2022/08/14 01:13:49;;;;;;;625.28;576.10;;;;;;;19.82;48.49;96286.56;5033404;28;20215;-65
2022/08/14 01:16:16;;;;;;;594.00;547.20;;;;;;;19.63;49.01;96288.53;5032433;28;20190;-65
2022/08/14 01:21:34;;;;;;;637.17;591.70;;;;;;;19.44;49.83;96276.09;5032999;28;20189;-65
2022/08/14 01:24:00;;;;;;;681.40;631.40;;;;;;;19.34;49.96;96268.31;5031868;28;20233;-66
2022/08/14 01:26:27;;;;;;;695.83;642.58;;;;;;;19.23;50.46;96269.56;5032561;28;20218;-65
2022/08/14 01:28:56;;;;;;;724.63;668.25;;;;;;;19.10;50.87;96275.69;5032736;28;20241;-65
2022/08/14 01:31:28;;;;;;;725.90;669.75;;;;;;;19.14;50.77;96271.34;5033409;28;20183;-65
2022/08/14 01:33:57;;;;;;;711.97;658.05;;;;;;;19.05;50.68;96279.22;5025734;28;20667;-65
2022/08/14 01:36:25;;;;;;;696.13;643.92;;;;;;;19.17;50.34;96272.63;5033080;28;20178;-65
2022/08/14 01:38:54;;;;;;;680.28;629.80;;;;;;;19.23;50.44;96272.22;5032742;28;20198;-65
2022/08/14 01:41:22;;;;;;;619.75;575.35;;;;;;;19.18;50.37;96272.31;5032863;28;20659;-65
2022/08/14 01:43:59;;;;;;;591.67;548.92;;;;;;;19.09;50.79;96261.59;5032698;28;20190;-65
2022/08/14 01:46:30;;;;;;;603.85;561.47;;;;;;;19.07;51.06;96262.97;5033231;28;20205;-64
2022/08/14 01:48:56;;;;;;;582.30;539.70;;;;;;;19.26;50.39;96253.06;5032631;28;20202;-64
2022/08/14 01:51:23;;;;;;;548.63;509.10;;;;;;;19.15;50.63;96264.16;5031173;28;20674;-65
2022/08/14 01:53:54;;;;;;;549.10;508.88;;;;;;;19.03;51.12;96261.97;5031612;28;20199;-65
2022/08/14 01:56:32;;;;;;;595.95;551.53;;;;;;;18.95;51.51;96259.97;5032793;28;20183;-64
2022/08/14 01:58:59;;;;;;;592.87;548.50;;;;;;;18.86;51.71;96261.75;5032202;28;20552;-64
2022/08/14 02:01:25;;;;;;;601.20;553.85;;;;;;;18.86;51.72;96245.81;5032113;28;20594;-66
2022/08/14 02:03:51;;;;;;;639.55;586.42;;;;;;;18.92;51.64;96242.00;5032611;28;20229;-64
2022/08/14 02:06:17;;;;;;;625.58;573.30;;;;;;;18.89;51.66;96232.72;5032205;28;20190;-65
2022/08/14 02:08:42;;;;;;;666.58;609.40;;;;;;;18.72;52.24;96229.06;5032504;28;20532;-64
2022/08/14 02:11:16;;;;;;;696.03;634.10;;;;;;;18.84;51.71;96229.38;5032040;28;20187;-64
2022/08/14 02:13:43;;;;;;;715.05;649.13;;;;;;;18.76;52.19;96228.19;5032050;28;20666;-64
2022/08/14 02:16:15;;;;;;;740.60;672.95;;;;;;;18.77;52.03;96232.44;5037602;28;20218;-65
2022/08/14 02:18:41;;;;;;;754.15;684.78;;;;;;;18.78;52.07;96243.84;5032592;28;20535;-64
2022/08/14 02:21:07;;;;;;;797.45;722.17;;;;;;;18.69;52.32;96246.38;5031949;28;20190;-64
2022/08/14 02:23:33;;;;;;;790.85;714.97;;;;;;;18.67;52.26;96254.59;5030234;28;20331;-64
2022/08/14 02:26:00;;;;;;;861.57;780.83;;;;;;;18.81;52.07;96252.00;5031714;28;20250;-64
2022/08/14 02:28:30;;;;;;;872.37;788.97;;;;;;;18.81;52.04;96245.91;5031970;28;20179;-64
2022/08/14 02:30:57;;;;;;;932.47;843.93;;;;;;;18.65;52.54;96243.50;5032057;28;20709;-64
2022/08/14 02:33:23;;;;;;;952.38;863.33;;;;;;;18.71;52.52;96241.56;5032090;28;20202;-64
2022/08/14 02:35:48;;;;;;;955.50;866.13;;;;;;;18.52;53.14;96238.13;5032233;28;20589;-64
2022/08/14 02:38:14;;;;;;;952.87;864.30;;;;;;;18.41;53.40;96229.53;5032199;28;20193;-65
2022/08/14 02:40:39;;;;;;;939.83;852.53;;;;;;;18.48;53.02;96224.66;5031771;28;20272;-65
2022/08/14 02:43:05;;;;;;;947.17;860.60;;;;;;;18.53;52.75;96213.16;5032190;28;20231;-64
2022/08/14 02:45:32;;;;;;;947.47;860.85;;;;;;;18.47;53.18;96212.44;5031512;28;20183;-65
2022/08/14 02:47:59;;;;;;;924.47;841.30;;;;;;;18.49;52.92;96204.22;5031899;28;20175;-67
2022/08/14 02:50:25;;;;;;;924.30;840.07;;;;;;;18.41;53.17;96200.34;5030658;28;20194;-65
2022/08/14 02:52:53;;;;;;;945.67;860.07;;;;;;;18.44;53.09;96198.97;5031980;28;20191;-65
2022/08/14 02:55:19;;;;;;;927.67;843.23;;;;;;;18.46;52.89;96192.28;5034167;28;20205;-65
2022/08/14 02:57:45;;;;;;;897.57;815.27;;;;;;;18.52;52.95;96183.16;5035693;28;20655;-64
2022/08/14 03:00:12;;;;;;;901.47;821.40;;;;;;;18.57;52.80;96183.09;5036089;28;20194;-64
2022/08/14 03:02:37;;;;;;;891.87;811.63;;;;;;;18.48;52.71;96179.53;5035727;28;20190;-64
2022/08/14 03:05:04;;;;;;;876.63;797.83;;;;;;;18.42;53.08;96175.38;5035935;28;20193;-64
2022/08/14 03:07:29;;;;;;;858.47;781.72;;;;;;;18.36;53.17;96181.84;5035629;28;20225;-65
2022/08/14 03:09:54;;;;;;;853.87;778.63;;;;;;;18.36;53.26;96184.50;5035493;28;20195;-64
2022/08/14 03:12:20;;;;;;;830.25;758.22;;;;;;;18.25;53.85;96183.09;5035210;28;20674;-65
2022/08/14 03:14:50;;;;;;;765.77;703.40;;;;;;;18.13;54.50;96177.44;5035082;28;20186;-64
2022/08/14 03:17:16;;;;;;;724.70;667.40;;;;;;;18.16;54.43;96177.66;5035304;28;20217;-64
2022/08/14 03:19:41;;;;;;;675.83;623.57;;;;;;;18.28;53.83;96177.19;5035291;28;20605;-65
2022/08/14 03:22:07;;;;;;;646.00;595.60;;;;;;;18.20;54.03;96173.34;5034980;28;20733;-64
2022/08/14 03:24:33;;;;;;;641.47;593.17;;;;;;;18.19;53.84;96176.28;5034681;28;20661;-65
2022/08/14 03:26:58;;;;;;;578.53;537.27;;;;;;;18.13;54.28;96172.13;5034951;28;20784;-65
2022/08/14 03:29:24;;;;;;;570.23;527.97;;;;;;;18.10;54.40;96167.41;5035675;28;20186;-64
2022/08/14 03:31:50;;;;;;;560.27;518.77;;;;;;;18.07;54.32;96165.31;5035069;28;20248;-65
2022/08/14 03:34:17;;;;;;;543.38;503.40;;;;;;;17.97;54.55;96160.97;5035270;28;20186;-63
2022/08/14 03:36:44;;;;;;;592.37;548.13;;;;;;;17.88;55.01;96151.31;5034847;28;20190;-64
2022/08/14 03:39:11;;;;;;;625.17;578.40;;;;;;;17.91;54.78;96146.22;5034820;28;20539;-65
2022/08/14 03:41:37;;;;;;;612.60;567.73;;;;;;;17.77;55.67;96143.53;5034677;28;20527;-65
2022/08/14 03:44:05;;;;;;;629.10;583.77;;;;;;;17.84;55.47;96143.94;5034144;28;20182;-64
2022/08/14 03:46:34;;;;;;;638.90;592.03;;;;;;;17.83;55.47;96150.31;5034810;28;20194;-64
2022/08/14 03:49:01;;;;;;;616.73;569.17;;;;;;;17.68;56.20;96144.44;5034743;28;20201;-64
2022/08/14 03:51:27;;;;;;;625.60;579.43;;;;;;;17.73;55.96;96149.66;5033128;28;20186;-63
2022/08/14 03:53:56;;;;;;;653.97;602.40;;;;;;;17.74;56.00;96145.94;5034660;28;20194;-64
2022/08/14 03:56:22;;;;;;;716.13;654.70;;;;;;;17.63;56.55;96145.31;5034725;28;20191;-64
2022/08/14 03:58:50;;;;;;;728.27;667.40;;;;;;;17.57;56.73;96149.06;5032941;28;20178;-64
2022/08/14 04:01:21;;;;;;;743.13;681.70;;;;;;;17.56;57.06;96144.84;5033539;28;20190;-64
2022/08/14 04:03:47;;;;;;;720.07;661.37;;;;;;;17.63;57.04;96139.22;5034259;28;20242;-64
2022/08/14 04:06:12;;;;;;;675.77;622.23;;;;;;;17.70;56.72;96139.66;5034021;28;20183;-63
2022/08/14 04:08:39;;;;;;;704.33;647.53;;;;;;;17.66;56.80;96142.09;5034507;28;20244;-64
2022/08/14 04:11:06;;;;;;;685.70;628.50;;;;;;;17.51;57.32;96152.06;5034069;28;20214;-63
2022/08/14 04:13:34;;;;;;;712.20;653.67;;;;;;;17.57;57.33;96140.31;5034362;28;20198;-64
2022/08/14 04:16:10;;;;;;;703.43;645.73;;;;;;;17.57;57.27;96141.13;5034142;28;20183;-63
2022/08/14 04:18:45;;;;;;;699.87;642.07;;;;;;;17.52;57.42;96141.19;5034566;28;20181;-64
2022/08/14 04:21:11;;;;;;;718.27;658.57;;;;;;;17.36;58.21;96130.00;5034020;28;20616;-64
2022/08/14 04:23:37;;;;;;;696.67;639.77;;;;;;;17.52;57.38;96124.50;5033173;28;20208;-63
2022/08/14 04:26:05;;;;;;;736.50;675.03;;;;;;;17.60;57.14;96129.19;5034050;28;20222;-64
2022/08/14 04:28:31;;;;;;;754.87;692.00;;;;;;;17.63;57.20;96132.03;5033864;28;20273;-64
2022/08/14 04:30:57;;;;;;;705.77;646.33;;;;;;;17.39;58.13;96123.34;5034167;28;20662;-64
2022/08/14 04:33:23;;;;;;;708.60;650.67;;;;;;;17.48;57.79;96120.84;5033340;28;20202;-64
2022/08/14 04:35:50;;;;;;;691.73;634.60;;;;;;;17.50;57.67;96126.66;5033101;28;20196;-64
2022/08/14 04:43:44;;;;;;;650.40;601.13;;;;;;;17.73;57.11;96131.91;5033794;28;20614;-64
2022/08/14 04:46:13;;;;;;;627.73;580.80;;;;;;;17.86;56.59;96125.09;5033229;28;20262;-64
2022/08/14 04:48:40;;;;;;;641.23;591.67;;;;;;;17.61;57.12;96128.88;5033412;28;20182;-64
2022/08/14 04:51:08;;;;;;;651.53;601.63;;;;;;;17.80;56.84;96123.59;5033713;28;20229;-64
2022/08/14 04:53:35;;;;;;;626.77;579.50;;;;;;;17.82;56.86;96127.53;5033495;28;20378;-63
2022/08/14 04:56:00;;;;;;;605.60;561.83;;;;;;;17.90;56.86;96134.03;5033714;28;20215;-64
2022/08/14 04:58:28;;;;;;;609.97;566.70;;;;;;;17.98;56.71;96138.69;5032998;28;20210;-64
2022/08/14 05:00:55;;;;;;;586.83;546.73;;;;;;;18.36;55.75;96144.69;5033195;28;20179;-64
2022/08/14 05:03:22;;;;;;;574.63;535.65;;;;;;;18.63;54.84;96142.13;5033260;28;20190;-64
2022/08/14 05:05:49;;;;;;;760.97;698.55;;;;;;;19.16;52.83;96144.31;5029329;28;20206;-63
2022/08/14 05:08:15;;;;;;;764.63;705.05;;;;;;;19.44;52.20;96153.03;5033415;28;20198;-64
2022/08/14 05:10:49;;;;;;;565.60;525.85;;;;;;;19.55;51.74;96143.78;5033903;28;20174;-63
2022/08/14 05:13:15;;;;;;;470.55;439.27;;;;;;;19.78;51.14;96149.94;5033108;28;20782;-64
2022/08/14 05:15:41;;;;;;;453.27;421.33;;;;;;;19.95;50.52;96154.63;5033660;28;20221;-64
2022/08/14 05:18:12;;;;;;;494.92;458.90;;;;;;;20.33;49.60;96146.00;5032585;28;20665;-64
2022/08/14 05:20:39;;;;;;;563.65;524.72;;;;;;;20.73;48.62;96141.47;5033562;28;20171;-64
2022/08/14 05:23:06;;;;;;;511.08;476.25;;;;;;;20.52;49.05;96148.44;5032412;28;20670;-63
2022/08/14 05:25:33;;;;;;;417.15;389.70;;;;;;;21.08;48.13;96145.06;5032904;28;20191;-65
2022/08/14 05:28:05;;;;;;;414.20;386.92;;;;;;;21.09;47.96;96145.84;5032529;28;20225;-64
2022/08/14 05:30:31;;;;;;;443.48;414.90;;;;;;;20.95;48.76;96138.00;5033347;28;20221;-64
2022/08/14 05:32:56;;;;;;;473.70;442.05;;;;;;;21.21;48.24;96134.63;5031643;28;20198;-64
2022/08/14 05:35:22;;;;;;;450.23;418.92;;;;;;;21.66;47.16;96137.84;5033272;28;20187;-64
2022/08/14 05:37:48;;;;;;;425.75;395.05;;;;;;;21.65;46.42;96130.94;5033269;28;20213;-65
2022/08/14 05:40:13;;;;;;;450.83;417.83;;;;;;;21.66;47.12;96140.53;5033168;28;20183;-64
2022/08/14 05:42:39;;;;;;;443.15;411.55;;;;;;;21.30;47.64;96132.78;5032696;28;20198;-64
2022/08/14 05:45:05;;;;;;;440.83;409.02;;;;;;;21.33;48.04;96130.28;5032770;28;20183;-64
2022/08/14 05:47:30;;;;;;;449.30;416.77;;;;;;;21.27;48.35;96125.41;5032505;28;20193;-64
2022/08/14 05:49:57;;;;;;;453.77;421.48;;;;;;;21.53;47.64;96126.22;5032525;28;20209;-64
2022/08/14 05:52:22;;;;;;;449.83;418.02;;;;;;;21.72;47.40;96120.59;5032722;28;20219;-64
2022/08/14 05:54:48;;;;;;;443.92;413.08;;;;;;;21.85;47.13;96123.09;5032146;28;20194;-64
2022/08/14 05:57:13;;;;;;;441.40;410.75;;;;;;;21.83;47.53;96127.97;5032111;28;20202;-64
2022/08/14 05:59:40;;;;;;;435.15;404.90;;;;;;;22.23;46.53;96127.81;5032113;28;20187;-64
2022/08/14 06:02:07;;;;;;;431.15;402.60;;;;;;;22.02;46.85;96132.22;5032473;28;20289;-64
2022/08/14 06:04:32;;;;;;;398.27;372.15;;;;;;;22.63;45.73;96123.78;5032658;28;20210;-64
2022/08/14 06:06:57;;;;;;;445.35;415.05;;;;;;;22.45;45.78;96130.28;5032273;28;20217;-65
2022/08/14 06:09:23;;;;;;;429.48;400.52;;;;;;;22.61;45.10;96126.00;5032886;28;20190;-64
2022/08/14 06:11:48;;;;;;;442.30;412.10;;;;;;;22.48;45.66;96128.84;5032850;28;20186;-63
2022/08/14 06:14:13;;;;;;;461.98;430.73;;;;;;;22.36;46.24;96129.50;5032106;28;20186;-64
2022/08/14 06:16:41;;;;;;;452.63;422.50;;;;;;;22.46;45.80;96131.06;5032198;28;20190;-63
2022/08/14 06:19:06;;;;;;;455.30;424.77;;;;;;;22.26;46.67;96124.50;5031782;28;20225;-64
2022/08/14 06:21:32;;;;;;;475.02;442.80;;;;;;;22.28;46.09;96120.44;5032482;28;20198;-66
2022/08/14 06:23:57;;;;;;;422.35;393.83;;;;;;;22.22;46.35;96119.03;5030148;28;20594;-70
2022/08/14 06:26:22;;;;;;;402.58;375.42;;;;;;;22.29;46.70;96113.97;5032059;28;20257;-66
2022/08/14 06:28:49;;;;;;;449.02;419.27;;;;;;;22.73;45.42;96118.13;5031342;28;20187;-64
2022/08/14 06:31:15;;;;;;;414.02;385.60;;;;;;;22.86;45.03;96115.53;5031843;28;20240;-64
2022/08/14 06:33:40;;;;;;;436.67;408.40;;;;;;;22.42;45.23;96106.88;5032002;28;20198;-64
2022/08/14 06:36:06;;;;;;;500.17;466.50;;;;;;;22.87;44.33;96103.75;5031867;28;20194;-65
2022/08/14 06:38:31;;;;;;;503.77;469.50;;;;;;;23.39;43.88;96097.03;5032167;28;20198;-65
2022/08/14 06:40:56;;;;;;;537.95;502.30;;;;;;;23.70;43.29;96088.63;5032300;28;20190;-64
2022/08/14 06:43:22;;;;;;;469.10;438.52;;;;;;;23.78;42.41;96095.03;5031697;28;20197;-64
2022/08/14 06:45:48;;;;;;;453.92;424.52;;;;;;;23.64;42.97;96095.28;5032345;28;20186;-65
2022/08/14 06:48:15;;;;;;;401.85;376.42;;;;;;;23.78;42.45;96089.69;5031959;28;20198;-65
2022/08/14 06:50:42;;;;;;;396.35;371.55;;;;;;;23.73;42.56;96081.84;5032186;28;20191;-64
2022/08/14 06:53:08;;;;;;;425.40;399.40;;;;;;;22.47;44.43;96079.19;5032143;28;20210;-65
2022/08/14 06:55:33;;;;;;;386.02;362.10;;;;;;;23.07;42.69;96074.41;5031428;28;20580;-65
2022/08/14 06:57:59;;;;;;;384.52;360.20;;;;;;;23.38;42.98;96075.94;5032021;28;20239;-66
2022/08/14 07:00:27;;;;;;;410.10;384.95;;;;;;;23.83;42.12;96081.44;5031974;28;20178;-65
2022/08/14 07:05:49;;;;;;;401.90;376.85;;;;;;;24.09;41.60;96081.19;5032101;28;20233;-66
2022/08/14 07:08:25;;;;;;;389.85;364.33;;;;;;;24.30;40.94;96081.94;5031841;28;20179;-66
2022/08/14 07:10:52;;;;;;;471.75;440.17;;;;;;;24.43;40.46;96073.63;5031738;28;20236;-65
2022/08/14 07:13:20;;;;;;;562.90;524.90;;;;;;;24.08;41.24;96072.38;5031541;28;20199;-65
2022/08/14 07:15:50;;;;;;;539.90;502.83;;;;;;;24.54;40.75;96060.56;5031601;28;20198;-64
2022/08/14 07:18:24;;;;;;;665.25;616.38;;;;;;;23.61;41.81;96064.63;5031602;28;20240;-64
2022/08/14 07:20:49;;;;;;;536.67;499.40;;;;;;;24.28;40.85;96060.09;5031172;28;20179;-67
2022/08/14 07:23:16;;;;;;;514.05;479.77;;;;;;;24.61;40.54;96063.50;5028852;28;20218;-63
2022/08/14 07:25:43;;;;;;;604.92;562.83;;;;;;;24.32;41.00;96069.81;5031224;28;20191;-64
2022/08/14 07:28:19;;;;;;;499.52;465.05;;;;;;;24.60;40.94;96069.19;5030853;28;20218;-65
2022/08/14 07:30:45;;;;;;;615.70;571.58;;;;;;;24.31;41.01;96070.91;5030696;28;20170;-65
2022/08/14 07:33:11;;;;;;;692.58;640.78;;;;;;;24.08;40.75;96068.91;5029562;28;20333;-65
2022/08/14 07:35:39;;;;;;;761.25;700.55;;;;;;;23.48;42.33;96057.63;5031217;28;20674;-65
2022/08/14 07:38:06;;;;;;;652.30;603.55;;;;;;;23.07;42.71;96066.38;5031407;28;20190;-65
2022/08/14 07:40:33;;;;;;;362.27;337.55;;;;;;;23.12;42.43;96073.44;5032711;28;20293;-65
2022/08/14 07:43:00;;;;;;;335.25;312.25;;;;;;;23.31;42.29;96078.34;5035105;28;20786;-65
2022/08/14 07:45:26;;;;;;;572.20;532.83;;;;;;;23.53;40.72;96076.16;5035119;28;20222;-65
2022/08/14 07:47:55;;;;;;;608.17;564.85;;;;;;;24.43;39.27;96086.22;5034838;28;20202;-66
2022/08/14 07:50:20;;;;;;;663.08;617.05;;;;;;;24.34;39.60;96077.53;5034078;28;20267;-65
2022/08/14 07:52:48;;;;;;;610.58;568.20;;;;;;;24.16;39.79;96086.81;5035061;28;20635;-65
2022/08/14 07:55:15;;;;;;;719.42;668.22;;;;;;;24.60;40.04;96074.53;5034313;28;20233;-66
2022/08/14 07:57:43;;;;;;;658.00;611.78;;;;;;;24.60;39.86;96083.38;5034703;28;20186;-65
2022/08/14 08:00:11;;;;;;;518.35;482.20;;;;;;;24.76;39.37;96081.59;5034055;28;20196;-66
2022/08/14 08:02:40;;;;;;;416.95;391.38;;;;;;;24.43;38.95;96078.97;5034761;28;20551;-65
2022/08/14 08:05:07;;;;;;;444.75;415.33;;;;;;;24.67;39.53;96080.13;5034610;28;20194;-65
2022/08/14 08:07:34;;;;;;;453.83;424.50;;;;;;;24.81;39.14;96089.41;5034587;28;20178;-66
2022/08/14 08:10:29;;;;;;;516.38;481.15;;;;;;;25.20;37.82;96087.19;5034320;28;20183;-68
2022/08/14 08:12:51;;;;;;;450.67;423.55;;;;;;;24.83;39.13;96081.03;5034109;28;20210;-65
2022/08/14 08:15:18;;;;;;;430.60;403.88;;;;;;;24.99;39.01;96078.50;5034780;28;20183;-65
2022/08/14 08:17:43;;;;;;;439.23;411.35;;;;;;;24.56;39.67;96077.13;5034570;28;20620;-65
2022/08/14 08:20:20;;;;;;;383.70;359.75;;;;;;;24.76;38.00;96078.91;5034275;28;20178;-64
2022/08/14 08:22:48;;;;;;;447.40;417.48;;;;;;;24.50;39.03;96067.72;5033631;28;20293;-69
2022/08/14 08:25:13;;;;;;;546.90;499.63;;;;;;;24.46;38.38;96071.41;5031077;28;20187;-65
2022/08/14 08:27:39;;;;;;;376.02;352.65;;;;;;;24.66;38.65;96071.31;5034593;28;20292;-65
2022/08/14 08:30:08;;;;;;;426.15;398.40;;;;;;;24.62;38.11;96072.31;5017240;28;20191;-66
2022/08/14 08:32:41;;;;;;;377.88;354.70;;;;;;;24.99;37.98;96063.19;5027961;28;20217;-65
2022/08/14 08:35:26;;;;;;;399.08;375.20;;;;;;;25.26;38.02;96064.38;5033639;28;20262;-65
2022/08/14 08:37:53;;;;;;;405.40;381.58;;;;;;;25.25;38.09;96060.91;5034580;28;20191;-65
2022/08/14 08:40:23;;;;;;;414.70;387.08;;;;;;;25.19;37.18;96064.94;5034185;28;20673;-65
2022/08/14 08:42:49;;;;;;;384.95;361.25;;;;;;;25.02;37.85;96075.91;5034796;28;20179;-67
2022/08/14 08:45:15;;;;;;;429.00;401.40;;;;;;;25.40;37.58;96072.09;5034393;28;20577;-65
2022/08/14 08:47:41;;;;;;;405.02;379.05;;;;;;;25.69;37.12;96066.41;5034389;28;20186;-65
2022/08/14 08:50:33;;;;;;;385.33;360.80;;;;;;;25.78;37.01;96064.38;5033659;28;20187;-66
2022/08/14 08:53:04;;;;;;;441.25;413.35;;;;;;;25.01;37.80;96062.84;5012911;28;20253;-67
2022/08/14 08:55:36;;;;;;;403.83;378.25;;;;;;;25.16;36.63;96059.47;5013769;28;20191;-66
2022/08/14 08:58:08;;;;;;;415.35;387.40;;;;;;;25.62;36.48;96061.66;5014181;28;20229;-66
2022/08/14 09:00:36;;;;;;;614.50;555.65;;;;;;;25.48;35.80;96061.19;5013006;28;20621;-66
2022/08/14 09:03:10;;;;;;;616.85;559.45;;;;;;;25.18;36.07;96049.22;5030344;28;20174;-67
2022/08/14 09:05:38;;;;;;;587.63;542.83;;;;;;;25.34;35.74;96033.97;5031569;28;20661;-66
2022/08/14 09:08:15;;;;;;;467.05;434.83;;;;;;;25.21;36.25;96035.09;5029941;28;20186;-71
2022/08/14 09:10:41;;;;;;;488.75;450.65;;;;;;;25.09;37.33;96038.59;5022343;28;20596;-65
2022/08/14 09:13:07;;;;;;;396.65;371.38;;;;;;;25.41;36.86;96028.78;5032897;28;20294;-65
2022/08/14 09:15:32;;;;;;;389.80;365.17;;;;;;;25.46;37.39;96031.25;5032805;28;20178;-64
2022/08/14 09:17:58;;;;;;;400.02;373.63;;;;;;;25.69;36.92;96034.19;5032975;28;20178;-67
2022/08/14 09:20:24;;;;;;;400.55;374.80;;;;;;;25.34;37.38;96028.59;5032469;28;20237;-66
2022/08/14 09:22:50;;;;;;;404.95;379.23;;;;;;;25.79;36.81;96030.28;5027485;28;20183;-66
2022/08/14 09:25:16;;;;;;;350.45;328.58;;;;;;;26.26;36.05;96035.75;5032659;28;20194;-65
2022/08/14 09:27:42;;;;;;;515.08;478.88;;;;;;;25.55;36.82;96044.53;5025269;28;20226;-65
2022/08/14 09:30:08;;;;;;;585.28;537.40;;;;;;;25.58;36.86;96033.13;5029496;28;20241;-65
2022/08/14 09:32:54;;;;;;;816.22;728.60;;;;;;;25.36;37.22;96042.44;5039542;28;20210;-67
2022/08/14 09:35:28;;;;;;;821.45;738.90;;;;;;;25.55;36.45;96033.78;5026876;28;20652;-65
2022/08/14 09:38:05;;;;;;;509.20;474.60;;;;;;;26.08;35.68;96044.09;5032679;28;20174;-65
2022/08/14 09:41:08;;;;;;;583.85;543.63;;;;;;;26.37;35.37;96031.41;5032344;28;20220;-65
2022/08/14 09:43:45;;;;;;;710.55;647.90;;;;;;;25.63;35.17;96041.72;5031755;28;20186;-66
2022/08/14 09:46:12;;;;;;;481.67;452.08;;;;;;;26.14;34.65;96035.81;5032420;28;20206;-66
2022/08/14 09:48:37;;;;;;;468.20;438.23;;;;;;;25.80;34.77;96031.84;5032530;28;20186;-64
2022/08/14 09:51:06;;;;;;;466.42;436.80;;;;;;;26.18;34.65;96028.63;5031936;28;20244;-65
2022/08/14 09:53:46;;;;;;;836.63;710.30;;;;;;;25.76;35.47;96017.50;5032162;28;20205;-66
2022/08/14 09:56:12;;;;;;;693.47;616.63;;;;;;;25.92;35.21;96024.47;5032368;28;20269;-65
2022/08/14 09:58:45;;;;;;;600.65;559.78;;;;;;;25.93;35.02;96015.31;5033208;28;20281;-65
2022/08/14 10:01:13;;;;;;;687.10;627.00;;;;;;;26.09;34.59;96009.94;5032329;28;20254;-64
2022/08/14 10:03:54;;;;;;;469.50;439.38;;;;;;;25.94;35.15;96008.81;5032072;28;20218;-65
2022/08/14 10:06:25;;;;;;;395.52;371.40;;;;;;;26.20;34.98;95988.72;5031155;28;20186;-65
2022/08/14 10:09:05;;;;;;;505.38;473.00;;;;;;;26.19;34.41;95987.19;5032054;28;20259;-65
2022/08/14 10:11:34;;;;;;;583.47;543.97;;;;;;;26.26;35.12;95984.69;5032473;28;20183;-65
2022/08/14 10:14:15;;;;;;;585.13;547.53;;;;;;;26.28;34.78;95987.81;5038755;28;20540;-63
2022/08/14 10:16:43;;;;;;;608.95;566.80;;;;;;;26.24;34.47;95977.00;5031595;28;20178;-66
2022/08/14 10:19:12;;;;;;;736.50;657.58;;;;;;;26.09;34.25;95969.66;5032011;28;20179;-64
2022/08/14 10:21:40;;;;;;;623.20;569.30;;;;;;;26.02;33.97;95970.28;5030255;28;20186;-64
2022/08/14 10:24:09;;;;;;;529.10;491.20;;;;;;;26.29;34.02;95957.94;5025101;28;20194;-64
2022/08/14 10:26:35;;;;;;;624.05;567.60;;;;;;;26.67;34.08;95967.25;5032120;28;20656;-64
2022/08/14 10:29:11;;;;;;;633.05;589.88;;;;;;;26.72;33.58;95948.94;5032017;28;20197;-63
2022/08/14 10:31:37;;;;;;;529.88;495.38;;;;;;;26.73;33.83;95933.56;5034030;28;20170;-62
2022/08/14 10:34:06;;;;;;;368.05;343.65;;;;;;;26.48;33.91;95938.38;5031614;28;20205;-63
2022/08/14 10:36:43;;;;;;;552.92;518.33;;;;;;;26.79;33.98;95932.19;5024612;28;20210;-63
2022/08/14 10:39:20;;;;;;;352.05;330.05;;;;;;;26.95;33.57;95937.53;5031866;28;20224;-64
2022/08/14 10:41:47;;;;;;;313.80;290.08;;;;;;;26.84;33.26;95946.13;5031360;28;20569;-65
2022/08/14 10:44:15;;;;;;;304.20;281.13;;;;;;;26.42;33.70;95934.41;5025513;28;20186;-63
2022/08/14 10:46:45;;;;;;;828.10;507.02;;;;;;;26.63;33.37;95929.53;5031918;28;20195;-64
2022/08/14 10:49:22;;;;;;;211.02;199.23;;;;;;;26.77;33.20;95929.06;5031962;28;20195;-64
2022/08/14 10:51:58;;;;;;;527.60;458.08;;;;;;;26.69;33.05;95925.44;5031797;28;20260;-64
2022/08/14 10:54:34;;;;;;;233.93;219.38;;;;;;;26.79;33.32;95922.19;5031676;28;20650;-65
2022/08/14 10:57:19;;;;;;;336.30;315.08;;;;;;;26.80;32.77;95921.06;5030727;28;20694;-65
2022/08/14 10:59:55;;;;;;;1550.68;802.15;;;;;;;26.77;32.65;95918.28;5031695;28;20182;-65
2022/08/14 11:02:35;;;;;;;584.42;539.30;;;;;;;26.83;32.24;95925.75;5030434;28;20547;-65
2022/08/14 11:05:13;;;;;;;420.27;393.35;;;;;;;27.13;32.35;95915.25;5031380;28;20188;-65
2022/08/14 11:07:53;;;;;;;696.78;632.88;;;;;;;26.67;32.46;95925.00;5031937;28;20279;-63
2022/08/14 11:10:19;;;;;;;415.38;388.85;;;;;;;27.01;32.81;95912.69;5031593;28;20551;-63
2022/08/14 11:12:47;;;;;;;683.72;624.78;;;;;;;26.89;32.74;95915.50;5031544;28;20203;-64
2022/08/14 11:15:26;;;;;;;528.17;494.35;;;;;;;26.99;32.54;95911.47;5031424;28;20187;-64
2022/08/14 11:17:52;;;;;;;593.35;548.10;;;;;;;27.29;32.34;95915.19;5035616;28;20175;-63